sensor_id;sensor_type;location;lat;lon;timestamp;pressure;altitude;pressure_sealevel;temperature;humidity
29215;BME280;16252;49.816;7.964;2023-05-24T00:01:49;100486.78;;;14.61;52.29
29215;BME280;16252;49.816;7.964;2023-05-24T00:04:15;100517.50;;;14.80;52.49
29215;BME280;16252;49.816;7.964;2023-05-24T00:06:40;100538.41;;;14.87;52.39
29215;BME280;16252;49.816;7.964;2023-05-24T00:09:06;100524.84;;;14.78;52.43
29215;BME280;16252;49.816;7.964;2023-05-24T00:11:32;100533.94;;;14.77;52.48
29215;BME280;16252;49.816;7.964;2023-05-24T00:13:57;100533.94;;;14.77;52.48
29215;BME280;16252;49.816;7.964;2023-05-24T00:16:23;100525.97;;;14.75;52.61
29215;BME280;16252;49.816;7.964;2023-05-24T00:18:48;100500.63;;;14.57;52.73
29215;BME280;16252;49.816;7.964;2023-05-24T00:21:13;100501.19;;;14.60;52.61
29215;BME280;16252;49.816;7.964;2023-05-24T00:23:39;100511.47;;;14.66;52.60
29215;BME280;16252;49.816;7.964;2023-05-24T00:26:06;100512.91;;;14.70;52.83
29215;BME280;16252;49.816;7.964;2023-05-24T00:28:33;100518.28;;;14.70;52.96
29215;BME280;16252;49.816;7.964;2023-05-24T00:30:58;100511.47;;;14.66;52.80
29215;BME280;16252;49.816;7.964;2023-05-24T00:33:23;100520.25;;;14.68;52.75
29215;BME280;16252;49.816;7.964;2023-05-24T00:35:49;100500.38;;;14.48;52.65
29215;BME280;16252;49.816;7.964;2023-05-24T00:38:21;100522.63;;;14.62;52.86
29215;BME280;16252;49.816;7.964;2023-05-24T00:40:46;100524.00;;;14.56;52.85
29215;BME280;16252;49.816;7.964;2023-05-24T00:43:13;100496.63;;;14.40;52.74
29215;BME280;16252;49.816;7.964;2023-05-24T00:45:38;100514.69;;;14.49;52.70
29215;BME280;16252;49.816;7.964;2023-05-24T00:48:03;100509.81;;;14.43;52.77
29215;BME280;16252;49.816;7.964;2023-05-24T00:50:29;100504.50;;;14.31;52.96
29215;BME280;16252;49.816;7.964;2023-05-24T00:52:54;100531.13;;;14.46;53.04
29215;BME280;16252;49.816;7.964;2023-05-24T00:55:21;100519.66;;;14.32;53.22
29215;BME280;16252;49.816;7.964;2023-05-24T00:57:47;100526.03;;;14.31;53.26
29215;BME280;16252;49.816;7.964;2023-05-24T01:00:12;100504.78;;;14.17;53.30
29215;BME280;16252;49.816;7.964;2023-05-24T01:02:38;100527.41;;;14.26;53.20
29215;BME280;16252;49.816;7.964;2023-05-24T01:05:04;100515.81;;;14.14;53.22
29215;BME280;16252;49.816;7.964;2023-05-24T01:07:37;100533.75;;;14.25;53.34
29215;BME280;16252;49.816;7.964;2023-05-24T01:10:29;100536.59;;;14.23;53.08
29215;BME280;16252;49.816;7.964;2023-05-24T01:13:03;100537.47;;;14.13;53.20
29215;BME280;16252;49.816;7.964;2023-05-24T01:18:31;100550.22;;;14.11;53.27
29215;BME280;16252;49.816;7.964;2023-05-24T01:21:37;100533.31;;;14.08;53.01
29215;BME280;16252;49.816;7.964;2023-05-24T01:24:24;100508.06;;;13.77;53.13
29215;BME280;16252;49.816;7.964;2023-05-24T01:27:11;100545.69;;;14.00;53.21
29215;BME280;16252;49.816;7.964;2023-05-24T01:29:37;100543.28;;;13.85;53.40
29215;BME280;16252;49.816;7.964;2023-05-24T01:32:03;100530.69;;;13.75;53.57
29215;BME280;16252;49.816;7.964;2023-05-24T01:34:29;100545.50;;;13.80;53.53
29215;BME280;16252;49.816;7.964;2023-05-24T01:36:55;100517.16;;;13.65;53.55
29215;BME280;16252;49.816;7.964;2023-05-24T01:39:22;100542.56;;;13.72;53.54
29215;BME280;16252;49.816;7.964;2023-05-24T01:42:03;100543.03;;;13.77;53.58
29215;BME280;16252;49.816;7.964;2023-05-24T01:49:53;100558.34;;;13.65;53.67
29215;BME280;16252;49.816;7.964;2023-05-24T01:52:21;100547.09;;;13.83;52.66
29215;BME280;16252;49.816;7.964;2023-05-24T01:54:50;100510.56;;;13.47;53.54
29215;BME280;16252;49.816;7.964;2023-05-24T01:57:18;100520.72;;;13.43;53.57
29215;BME280;16252;49.816;7.964;2023-05-24T01:59:44;100544.03;;;13.54;53.52
29215;BME280;16252;49.816;7.964;2023-05-24T02:02:11;100541.84;;;13.48;53.60
29215;BME280;16252;49.816;7.964;2023-05-24T02:04:36;100517.31;;;13.30;53.38
29215;BME280;16252;49.816;7.964;2023-05-24T02:07:01;100538.44;;;13.46;53.26
29215;BME280;16252;49.816;7.964;2023-05-24T02:09:27;100536.59;;;13.35;53.31
29215;BME280;16252;49.816;7.964;2023-05-24T02:11:52;100538.94;;;13.39;53.41
29215;BME280;16252;49.816;7.964;2023-05-24T02:14:17;100525.47;;;13.28;53.65
29215;BME280;16252;49.816;7.964;2023-05-24T02:16:44;100512.25;;;13.14;53.73
29215;BME280;16252;49.816;7.964;2023-05-24T02:19:11;100537.81;;;13.31;53.71
29215;BME280;16252;49.816;7.964;2023-05-24T02:21:37;100541.13;;;13.34;53.75
29215;BME280;16252;49.816;7.964;2023-05-24T02:24:02;100529.47;;;13.22;53.63
29215;BME280;16252;49.816;7.964;2023-05-24T02:26:27;100536.56;;;13.23;53.63
29215;BME280;16252;49.816;7.964;2023-05-24T02:28:52;100540.97;;;13.25;53.89
29215;BME280;16252;49.816;7.964;2023-05-24T02:31:18;100526.56;;;13.14;53.85
29215;BME280;16252;49.816;7.964;2023-05-24T02:33:43;100536.19;;;13.17;53.98
29215;BME280;16252;49.816;7.964;2023-05-24T02:36:08;100528.25;;;13.15;53.95
29215;BME280;16252;49.816;7.964;2023-05-24T02:38:34;100536.69;;;13.22;54.20
29215;BME280;16252;49.816;7.964;2023-05-24T02:41:01;100542.59;;;13.27;54.31
29215;BME280;16252;49.816;7.964;2023-05-24T02:43:26;100521.03;;;13.16;54.00
29215;BME280;16252;49.816;7.964;2023-05-24T02:45:51;100538.06;;;13.28;54.00
29215;BME280;16252;49.816;7.964;2023-05-24T02:48:17;100538.81;;;13.30;53.76
29215;BME280;16252;49.816;7.964;2023-05-24T02:50:42;100510.19;;;13.17;53.81
29215;BME280;16252;49.816;7.964;2023-05-24T02:53:07;100535.63;;;13.36;53.71
29215;BME280;16252;49.816;7.964;2023-05-24T02:55:33;100523.63;;;13.29;53.80
29215;BME280;16252;49.816;7.964;2023-05-24T02:57:58;100543.31;;;13.40;53.93
29215;BME280;16252;49.816;7.964;2023-05-24T03:00:23;100527.44;;;13.37;53.84
29215;BME280;16252;49.816;7.964;2023-05-24T03:02:48;100536.59;;;13.46;53.70
29215;BME280;16252;49.816;7.964;2023-05-24T03:05:15;100544.88;;;13.54;53.84
29215;BME280;16252;49.816;7.964;2023-05-24T03:07:41;100528.88;;;13.41;53.99
29215;BME280;16252;49.816;7.964;2023-05-24T03:10:06;100536.97;;;13.53;53.97
29215;BME280;16252;49.816;7.964;2023-05-24T03:12:32;100539.28;;;13.57;53.83
29215;BME280;16252;49.816;7.964;2023-05-24T03:14:57;100538.66;;;13.54;53.83
29215;BME280;16252;49.816;7.964;2023-05-24T03:17:22;100542.84;;;13.58;53.59
29215;BME280;16252;49.816;7.964;2023-05-24T03:19:48;100505.94;;;13.37;53.56
29215;BME280;16252;49.816;7.964;2023-05-24T03:22:13;100532.56;;;13.52;53.64
29215;BME280;16252;49.816;7.964;2023-05-24T03:24:38;100523.78;;;13.50;53.85
29215;BME280;16252;49.816;7.964;2023-05-24T03:27:05;100545.38;;;13.59;53.68
29215;BME280;16252;49.816;7.964;2023-05-24T03:29:30;100533.44;;;13.52;53.64
29215;BME280;16252;49.816;7.964;2023-05-24T03:31:56;100519.97;;;13.41;53.59
29215;BME280;16252;49.816;7.964;2023-05-24T03:34:21;100549.91;;;13.59;53.53
29215;BME280;16252;49.816;7.964;2023-05-24T03:36:47;100532.06;;;13.47;53.42
29215;BME280;16252;49.816;7.964;2023-05-24T03:39:12;100454.59;;;12.95;53.70
29215;BME280;16252;49.816;7.964;2023-05-24T03:41:37;100545.50;;;13.47;53.65
29215;BME280;16252;49.816;7.964;2023-05-24T03:44:02;100480.13;;;13.12;53.72
29215;BME280;16252;49.816;7.964;2023-05-24T03:46:28;100525.97;;;13.33;53.60
29215;BME280;16252;49.816;7.964;2023-05-24T03:48:53;100550.41;;;13.41;53.57
29215;BME280;16252;49.816;7.964;2023-05-24T03:51:18;100510.03;;;13.19;53.73
29215;BME280;16252;49.816;7.964;2023-05-24T03:53:44;100541.59;;;13.28;53.83
29215;BME280;16252;49.816;7.964;2023-05-24T03:56:09;100531.78;;;13.16;53.61
29215;BME280;16252;49.816;7.964;2023-05-24T03:58:34;100525.91;;;13.11;53.74
29215;BME280;16252;49.816;7.964;2023-05-24T04:01:00;100547.53;;;13.20;53.81
29215;BME280;16252;49.816;7.964;2023-05-24T04:03:25;100552.06;;;13.20;53.81
29215;BME280;16252;49.816;7.964;2023-05-24T04:05:51;100521.41;;;13.00;53.65
29215;BME280;16252;49.816;7.964;2023-05-24T04:08:16;100538.00;;;13.05;53.64
29215;BME280;16252;49.816;7.964;2023-05-24T04:10:41;100548.41;;;13.10;53.92
29215;BME280;16252;49.816;7.964;2023-05-24T04:13:07;100543.38;;;13.05;53.88
29215;BME280;16252;49.816;7.964;2023-05-24T04:15:32;100560.25;;;13.07;53.79
29215;BME280;16252;49.816;7.964;2023-05-24T04:17:58;100546.91;;;12.94;53.86
29215;BME280;16252;49.816;7.964;2023-05-24T04:20:24;100574.53;;;13.08;54.02
29215;BME280;16252;49.816;7.964;2023-05-24T04:22:51;100553.13;;;12.95;54.13
29215;BME280;16252;49.816;7.964;2023-05-24T04:25:17;100561.09;;;12.96;54.25
29215;BME280;16252;49.816;7.964;2023-05-24T04:27:42;100572.09;;;13.05;54.20
29215;BME280;16252;49.816;7.964;2023-05-24T04:30:09;100576.72;;;13.02;54.48
29215;BME280;16252;49.816;7.964;2023-05-24T04:32:35;100549.19;;;12.88;54.14
29215;BME280;16252;49.816;7.964;2023-05-24T04:35:00;100567.31;;;12.97;54.18
29215;BME280;16252;49.816;7.964;2023-05-24T04:37:29;100552.53;;;12.91;53.99
29215;BME280;16252;49.816;7.964;2023-05-24T04:39:56;100543.81;;;12.76;53.91
29215;BME280;16252;49.816;7.964;2023-05-24T04:42:21;100569.50;;;12.92;54.26
29215;BME280;16252;49.816;7.964;2023-05-24T04:44:46;100546.13;;;12.81;53.98
29215;BME280;16252;49.816;7.964;2023-05-24T04:47:12;100577.91;;;12.98;54.09
29215;BME280;16252;49.816;7.964;2023-05-24T04:49:38;100570.84;;;12.97;54.09
29215;BME280;16252;49.816;7.964;2023-05-24T04:52:04;100567.16;;;12.98;54.06
29215;BME280;16252;49.816;7.964;2023-05-24T04:54:29;100533.34;;;12.85;53.96
29215;BME280;16252;49.816;7.964;2023-05-24T04:56:54;100564.25;;;13.01;53.82
29215;BME280;16252;49.816;7.964;2023-05-24T04:59:20;100559.09;;;12.98;54.06
29215;BME280;16252;49.816;7.964;2023-05-24T05:01:45;100535.63;;;12.78;53.85
29215;BME280;16252;49.816;7.964;2023-05-24T05:04:11;100556.41;;;12.87;53.91
29215;BME280;16252;49.816;7.964;2023-05-24T05:06:36;100556.81;;;12.94;53.87
29215;BME280;16252;49.816;7.964;2023-05-24T05:09:08;100565.22;;;13.00;54.13
29215;BME280;16252;49.816;7.964;2023-05-24T05:11:36;100592.13;;;13.12;54.01
29215;BME280;16252;49.816;7.964;2023-05-24T05:14:02;100572.91;;;12.94;53.81
29215;BME280;16252;49.816;7.964;2023-05-24T05:16:27;100599.44;;;13.10;54.11
29215;BME280;16252;49.816;7.964;2023-05-24T05:18:53;100595.28;;;13.06;54.27
29215;BME280;16252;49.816;7.964;2023-05-24T05:21:18;100593.56;;;13.05;54.01
29215;BME280;16252;49.816;7.964;2023-05-24T05:23:44;100604.56;;;13.13;54.03
29215;BME280;16252;49.816;7.964;2023-05-24T05:26:09;100613.25;;;13.16;54.10
29215;BME280;16252;49.816;7.964;2023-05-24T05:28:35;100591.00;;;13.03;54.23
29215;BME280;16252;49.816;7.964;2023-05-24T05:31:01;100599.19;;;13.13;53.86
29215;BME280;16252;49.816;7.964;2023-05-24T05:33:26;100614.38;;;13.25;53.90
29215;BME280;16252;49.816;7.964;2023-05-24T05:35:51;100610.94;;;13.23;53.64
29215;BME280;16252;49.816;7.964;2023-05-24T05:38:16;100595.81;;;13.22;53.34
29215;BME280;16252;49.816;7.964;2023-05-24T05:40:42;100587.00;;;13.20;53.27
29215;BME280;16252;49.816;7.964;2023-05-24T05:43:07;100588.09;;;13.17;53.14
29215;BME280;16252;49.816;7.964;2023-05-24T05:45:33;100584.66;;;13.15;53.05
29215;BME280;16252;49.816;7.964;2023-05-24T05:47:58;100595.56;;;13.25;53.49
29215;BME280;16252;49.816;7.964;2023-05-24T05:50:24;100593.97;;;13.22;53.38
29215;BME280;16252;49.816;7.964;2023-05-24T05:52:49;100587.50;;;13.25;53.06
29215;BME280;16252;49.816;7.964;2023-05-24T05:55:14;100596.94;;;13.31;53.03
29215;BME280;16252;49.816;7.964;2023-05-24T05:57:40;100582.03;;;13.27;52.81
29215;BME280;16252;49.816;7.964;2023-05-24T06:00:05;100542.03;;;12.99;52.52
29215;BME280;16252;49.816;7.964;2023-05-24T06:02:31;100600.84;;;13.27;52.70
29215;BME280;16252;49.816;7.964;2023-05-24T06:04:56;100580.78;;;13.19;52.67
29215;BME280;16252;49.816;7.964;2023-05-24T06:07:21;100607.69;;;13.31;52.75
29215;BME280;16252;49.816;7.964;2023-05-24T06:09:47;100600.94;;;13.25;52.62
29215;BME280;16252;49.816;7.964;2023-05-24T06:12:12;100609.28;;;13.33;52.64
29215;BME280;16252;49.816;7.964;2023-05-24T06:14:37;100615.50;;;13.34;52.62
29215;BME280;16252;49.816;7.964;2023-05-24T06:17:04;100617.44;;;13.32;52.60
29215;BME280;16252;49.816;7.964;2023-05-24T06:19:29;100616.16;;;13.37;52.14
29215;BME280;16252;49.816;7.964;2023-05-24T06:21:55;100606.69;;;13.32;52.35
29215;BME280;16252;49.816;7.964;2023-05-24T06:24:21;100588.03;;;13.30;52.29
29215;BME280;16252;49.816;7.964;2023-05-24T06:26:51;100570.38;;;13.26;51.89
29215;BME280;16252;49.816;7.964;2023-05-24T06:29:16;100619.47;;;13.52;52.21
29215;BME280;16252;49.816;7.964;2023-05-24T06:31:46;100609.06;;;13.48;52.12
29215;BME280;16252;49.816;7.964;2023-05-24T06:34:12;100615.91;;;13.52;51.89
29215;BME280;16252;49.816;7.964;2023-05-24T06:36:37;100615.78;;;13.53;51.80
29215;BME280;16252;49.816;7.964;2023-05-24T06:39:07;100601.00;;;13.48;52.27
29215;BME280;16252;49.816;7.964;2023-05-24T06:41:33;100623.13;;;13.62;52.59
29215;BME280;16252;49.816;7.964;2023-05-24T06:43:59;100612.72;;;13.69;51.96
29215;BME280;16252;49.816;7.964;2023-05-24T06:46:25;100634.84;;;13.84;51.97
29215;BME280;16252;49.816;7.964;2023-05-24T06:48:50;100625.44;;;13.90;51.65
29215;BME280;16252;49.816;7.964;2023-05-24T06:51:15;100609.66;;;13.96;52.11
29215;BME280;16252;49.816;7.964;2023-05-24T06:53:41;100619.78;;;14.15;51.85
29215;BME280;16252;49.816;7.964;2023-05-24T06:56:06;100621.09;;;14.32;51.93
29215;BME280;16252;49.816;7.964;2023-05-24T06:58:34;100590.91;;;14.28;51.34
29215;BME280;16252;49.816;7.964;2023-05-24T07:00:59;100614.66;;;14.67;51.37
29215;BME280;16252;49.816;7.964;2023-05-24T07:03:24;100619.09;;;14.89;50.66
29215;BME280;16252;49.816;7.964;2023-05-24T07:05:50;100590.31;;;14.89;50.66
29215;BME280;16252;49.816;7.964;2023-05-24T07:08:15;100649.28;;;15.46;50.85
29215;BME280;16252;49.816;7.964;2023-05-24T07:10:41;100618.09;;;15.53;50.04
29215;BME280;16252;49.816;7.964;2023-05-24T07:13:07;100633.47;;;15.83;49.78
29215;BME280;16252;49.816;7.964;2023-05-24T07:15:33;100639.72;;;16.24;50.04
29215;BME280;16252;49.816;7.964;2023-05-24T07:17:58;100634.94;;;16.57;49.54
29215;BME280;16252;49.816;7.964;2023-05-24T07:20:24;100633.84;;;16.79;48.38
29215;BME280;16252;49.816;7.964;2023-05-24T07:22:49;100622.31;;;17.06;48.27
29215;BME280;16252;49.816;7.964;2023-05-24T07:25:16;100648.72;;;17.41;48.21
29215;BME280;16252;49.816;7.964;2023-05-24T07:27:41;100635.28;;;17.59;48.60
29215;BME280;16252;49.816;7.964;2023-05-24T07:30:07;100647.78;;;18.17;49.18
29215;BME280;16252;49.816;7.964;2023-05-24T07:32:32;100617.81;;;18.64;49.20
29215;BME280;16252;49.816;7.964;2023-05-24T07:34:58;100589.78;;;19.35;49.15
29215;BME280;16252;49.816;7.964;2023-05-24T07:37:23;100595.16;;;20.30;48.48
29215;BME280;16252;49.816;7.964;2023-05-24T07:39:49;100632.66;;;21.34;47.61
29215;BME280;16252;49.816;7.964;2023-05-24T07:42:15;100602.53;;;22.08;46.23
29215;BME280;16252;49.816;7.964;2023-05-24T07:44:40;100627.34;;;23.07;45.26
29215;BME280;16252;49.816;7.964;2023-05-24T07:47:06;100623.81;;;23.89;43.66
29215;BME280;16252;49.816;7.964;2023-05-24T07:49:31;100621.03;;;24.70;42.52
29215;BME280;16252;49.816;7.964;2023-05-24T07:51:56;100631.22;;;25.47;41.97
29215;BME280;16252;49.816;7.964;2023-05-24T07:54:23;100625.09;;;26.08;40.09
29215;BME280;16252;49.816;7.964;2023-05-24T07:56:49;100607.59;;;26.57;39.92
29215;BME280;16252;49.816;7.964;2023-05-24T07:59:14;100617.38;;;27.13;38.44
29215;BME280;16252;49.816;7.964;2023-05-24T08:01:39;100624.34;;;27.69;38.87
29215;BME280;16252;49.816;7.964;2023-05-24T08:04:05;100629.50;;;28.17;38.68
29215;BME280;16252;49.816;7.964;2023-05-24T08:06:32;100627.63;;;28.62;35.97
29215;BME280;16252;49.816;7.964;2023-05-24T08:08:59;100619.34;;;28.94;35.33
29215;BME280;16252;49.816;7.964;2023-05-24T08:11:24;100637.06;;;29.36;35.05
29215;BME280;16252;49.816;7.964;2023-05-24T08:13:50;100631.41;;;29.75;34.86
29215;BME280;16252;49.816;7.964;2023-05-24T08:16:15;100635.81;;;30.01;33.59
29215;BME280;16252;49.816;7.964;2023-05-24T08:18:41;100623.31;;;30.17;33.33
29215;BME280;16252;49.816;7.964;2023-05-24T08:21:06;100644.53;;;30.53;32.68
29215;BME280;16252;49.816;7.964;2023-05-24T08:23:33;100631.25;;;30.62;32.41
29215;BME280;16252;49.816;7.964;2023-05-24T08:25:58;100644.31;;;30.85;31.74
29215;BME280;16252;49.816;7.964;2023-05-24T08:28:24;100636.44;;;31.00;31.22
29215;BME280;16252;49.816;7.964;2023-05-24T08:30:49;100643.31;;;31.09;31.13
29215;BME280;16252;49.816;7.964;2023-05-24T08:33:15;100653.66;;;31.26;30.71
29215;BME280;16252;49.816;7.964;2023-05-24T08:35:43;100625.28;;;31.19;30.45
29215;BME280;16252;49.816;7.964;2023-05-24T08:38:08;100632.16;;;31.28;30.33
29215;BME280;16252;49.816;7.964;2023-05-24T08:40:34;100630.50;;;31.39;29.81
29215;BME280;16252;49.816;7.964;2023-05-24T08:43:00;100644.69;;;31.54;30.18
29215;BME280;16252;49.816;7.964;2023-05-24T08:45:28;100638.44;;;31.59;29.40
29215;BME280;16252;49.816;7.964;2023-05-24T08:47:55;100632.19;;;31.63;29.07
29215;BME280;16252;49.816;7.964;2023-05-24T08:50:21;100619.31;;;31.69;29.18
29215;BME280;16252;49.816;7.964;2023-05-24T08:52:46;100622.09;;;31.81;28.41
29215;BME280;16252;49.816;7.964;2023-05-24T08:55:13;100620.53;;;31.97;28.80
29215;BME280;16252;49.816;7.964;2023-05-24T08:57:39;100623.28;;;32.08;28.05
29215;BME280;16252;49.816;7.964;2023-05-24T09:00:09;100617.59;;;32.15;25.96
29215;BME280;16252;49.816;7.964;2023-05-24T09:02:39;100628.97;;;32.30;27.69
29215;BME280;16252;49.816;7.964;2023-05-24T09:05:08;100610.91;;;32.28;27.19
29215;BME280;16252;49.816;7.964;2023-05-24T09:07:35;100624.72;;;32.11;26.25
29215;BME280;16252;49.816;7.964;2023-05-24T09:10:04;100632.28;;;31.80;26.43
29215;BME280;16252;49.816;7.964;2023-05-24T09:12:30;100631.41;;;31.21;26.60
29215;BME280;16252;49.816;7.964;2023-05-24T09:14:57;100631.56;;;30.54;26.47
29215;BME280;16252;49.816;7.964;2023-05-24T09:17:23;100611.91;;;29.76;26.60
29215;BME280;16252;49.816;7.964;2023-05-24T09:19:49;100600.25;;;28.99;27.11
29215;BME280;16252;49.816;7.964;2023-05-24T09:22:16;100621.97;;;28.50;26.99
29215;BME280;16252;49.816;7.964;2023-05-24T09:24:50;100617.31;;;27.79;26.79
29215;BME280;16252;49.816;7.964;2023-05-24T09:27:19;100596.25;;;27.00;27.64
29215;BME280;16252;49.816;7.964;2023-05-24T09:29:48;100628.91;;;26.55;28.28
29215;BME280;16252;49.816;7.964;2023-05-24T09:32:14;100622.34;;;26.08;28.74
29215;BME280;16252;49.816;7.964;2023-05-24T09:34:41;100612.59;;;25.64;28.85
29215;BME280;16252;49.816;7.964;2023-05-24T09:37:14;100620.09;;;25.48;29.68
29215;BME280;16252;49.816;7.964;2023-05-24T09:39:41;100618.00;;;25.22;29.11
29215;BME280;16252;49.816;7.964;2023-05-24T09:42:06;100615.75;;;25.11;29.44
29215;BME280;16252;49.816;7.964;2023-05-24T09:44:32;100619.53;;;25.10;28.91
29215;BME280;16252;49.816;7.964;2023-05-24T09:47:01;100638.78;;;25.17;28.85
29215;BME280;16252;49.816;7.964;2023-05-24T09:49:31;100628.94;;;25.22;30.48
29215;BME280;16252;49.816;7.964;2023-05-24T09:51:56;100581.28;;;25.45;29.70
29215;BME280;16252;49.816;7.964;2023-05-24T09:54:23;100593.84;;;25.96;30.01
29215;BME280;16252;49.816;7.964;2023-05-24T09:56:51;100617.72;;;26.63;29.61
29215;BME280;16252;49.816;7.964;2023-05-24T09:59:17;100618.25;;;27.40;29.36
29215;BME280;16252;49.816;7.964;2023-05-24T10:01:43;100625.50;;;28.13;28.34
29215;BME280;16252;49.816;7.964;2023-05-24T10:04:09;100610.19;;;28.75;26.83
29215;BME280;16252;49.816;7.964;2023-05-24T10:06:35;100602.81;;;29.26;26.46
29215;BME280;16252;49.816;7.964;2023-05-24T10:09:04;100627.66;;;29.88;26.21
29215;BME280;16252;49.816;7.964;2023-05-24T10:11:32;100614.34;;;30.21;26.01
29215;BME280;16252;49.816;7.964;2023-05-24T10:13:58;100619.38;;;30.61;25.51
29215;BME280;16252;49.816;7.964;2023-05-24T10:16:23;100619.94;;;30.82;24.85
29215;BME280;16252;49.816;7.964;2023-05-24T10:18:49;100616.97;;;30.95;24.75
29215;BME280;16252;49.816;7.964;2023-05-24T10:21:16;100615.41;;;30.99;25.17
29215;BME280;16252;49.816;7.964;2023-05-24T10:23:43;100619.88;;;31.12;25.13
29215;BME280;16252;49.816;7.964;2023-05-24T10:26:09;100609.53;;;31.19;26.28
29215;BME280;16252;49.816;7.964;2023-05-24T10:28:50;100621.28;;;31.45;25.98
29215;BME280;16252;49.816;7.964;2023-05-24T10:31:24;100608.53;;;31.56;25.33
29215;BME280;16252;49.816;7.964;2023-05-24T10:33:52;100581.09;;;31.66;25.22
29215;BME280;16252;49.816;7.964;2023-05-24T10:36:21;100597.28;;;31.98;24.61
29215;BME280;16252;49.816;7.964;2023-05-24T10:38:47;100611.00;;;32.04;24.46
29215;BME280;16252;49.816;7.964;2023-05-24T10:41:13;100597.03;;;32.11;24.23
29215;BME280;16252;49.816;7.964;2023-05-24T10:43:39;100591.03;;;32.02;24.35
29215;BME280;16252;49.816;7.964;2023-05-24T10:46:07;100579.00;;;31.85;23.93
29215;BME280;16252;49.816;7.964;2023-05-24T10:48:34;100608.25;;;31.81;23.59
29215;BME280;16252;49.816;7.964;2023-05-24T10:51:30;100602.00;;;31.62;25.04
29215;BME280;16252;49.816;7.964;2023-05-24T10:53:57;100605.81;;;31.02;23.94
29215;BME280;16252;49.816;7.964;2023-05-24T10:56:22;100589.81;;;30.62;23.87
29215;BME280;16252;49.816;7.964;2023-05-24T11:01:28;100594.13;;;30.09;24.42
29215;BME280;16252;49.816;7.964;2023-05-24T11:04:11;100601.78;;;29.89;25.19
29215;BME280;16252;49.816;7.964;2023-05-24T11:06:53;100584.50;;;29.56;25.19
29215;BME280;16252;49.816;7.964;2023-05-24T11:09:19;100572.00;;;29.35;25.50
29215;BME280;16252;49.816;7.964;2023-05-24T11:11:47;100578.31;;;29.17;24.98
29215;BME280;16252;49.816;7.964;2023-05-24T11:14:17;100592.09;;;29.17;25.20
29215;BME280;16252;49.816;7.964;2023-05-24T11:16:45;100559.31;;;28.78;25.24
29215;BME280;16252;49.816;7.964;2023-05-24T11:19:16;100585.38;;;28.82;24.74
29215;BME280;16252;49.816;7.964;2023-05-24T11:21:43;100542.84;;;28.39;24.76
29215;BME280;16252;49.816;7.964;2023-05-24T11:24:10;100583.28;;;28.39;25.44
29215;BME280;16252;49.816;7.964;2023-05-24T11:26:35;100584.84;;;28.21;25.47
29215;BME280;16252;49.816;7.964;2023-05-24T11:29:02;100561.06;;;27.88;25.75
29215;BME280;16252;49.816;7.964;2023-05-24T11:31:28;100584.56;;;27.71;25.42
29215;BME280;16252;49.816;7.964;2023-05-24T11:33:53;100560.97;;;27.37;25.75
29215;BME280;16252;49.816;7.964;2023-05-24T11:36:19;100546.41;;;27.10;25.53
29215;BME280;16252;49.816;7.964;2023-05-24T11:38:48;100562.00;;;26.96;25.61
29215;BME280;16252;49.816;7.964;2023-05-24T11:41:14;100552.09;;;26.82;26.26
29215;BME280;16252;49.816;7.964;2023-05-24T11:43:39;100557.38;;;26.76;26.41
29215;BME280;16252;49.816;7.964;2023-05-24T11:46:06;100563.31;;;26.87;26.47
29215;BME280;16252;49.816;7.964;2023-05-24T11:48:31;100553.16;;;26.80;26.07
29215;BME280;16252;49.816;7.964;2023-05-24T11:50:57;100546.38;;;26.70;26.04
29215;BME280;16252;49.816;7.964;2023-05-24T11:53:24;100561.41;;;26.74;26.22
29215;BME280;16252;49.816;7.964;2023-05-24T11:55:51;100531.38;;;26.52;26.16
29215;BME280;16252;49.816;7.964;2023-05-24T11:58:22;100549.97;;;26.70;26.44
29215;BME280;16252;49.816;7.964;2023-05-24T12:00:48;100516.34;;;26.42;26.95
29215;BME280;16252;49.816;7.964;2023-05-24T12:03:13;100508.31;;;26.33;26.40
29215;BME280;16252;49.816;7.964;2023-05-24T12:05:38;100541.47;;;26.52;26.58
29215;BME280;16252;49.816;7.964;2023-05-24T12:08:08;100530.69;;;26.50;26.37
29215;BME280;16252;49.816;7.964;2023-05-24T12:10:35;100528.34;;;26.41;26.64
29215;BME280;16252;49.816;7.964;2023-05-24T12:13:05;100507.88;;;26.30;26.64
29215;BME280;16252;49.816;7.964;2023-05-24T12:15:31;100529.22;;;26.34;26.92
29215;BME280;16252;49.816;7.964;2023-05-24T12:17:57;100529.41;;;26.26;26.76
29215;BME280;16252;49.816;7.964;2023-05-24T12:20:22;100540.78;;;26.30;26.20
29215;BME280;16252;49.816;7.964;2023-05-24T12:22:52;100525.13;;;26.10;26.65
29215;BME280;16252;49.816;7.964;2023-05-24T12:25:18;100533.75;;;26.01;26.86
29215;BME280;16252;49.816;7.964;2023-05-24T12:27:51;100547.75;;;26.26;27.85
29215;BME280;16252;49.816;7.964;2023-05-24T12:30:22;100543.63;;;25.95;26.13
29215;BME280;16252;49.816;7.964;2023-05-24T12:32:48;100536.75;;;25.71;27.42
29215;BME280;16252;49.816;7.964;2023-05-24T12:35:16;100537.72;;;25.57;27.37
29215;BME280;16252;49.816;7.964;2023-05-24T12:37:42;100545.03;;;25.43;27.38
29215;BME280;16252;49.816;7.964;2023-05-24T12:40:18;100550.44;;;25.36;27.73
29215;BME280;16252;49.816;7.964;2023-05-24T12:42:55;100513.03;;;24.94;27.96
29215;BME280;16252;49.816;7.964;2023-05-24T12:45:26;100510.28;;;24.87;27.53
29215;BME280;16252;49.816;7.964;2023-05-24T12:47:52;100555.50;;;24.83;27.86
29215;BME280;16252;49.816;7.964;2023-05-24T12:50:19;100540.91;;;24.54;27.91
29215;BME280;16252;49.816;7.964;2023-05-24T12:52:45;100557.81;;;24.43;28.18
29215;BME280;16252;49.816;7.964;2023-05-24T12:55:12;100541.13;;;24.16;28.51
29215;BME280;16252;49.816;7.964;2023-05-24T12:57:37;100507.09;;;23.83;28.94
29215;BME280;16252;49.816;7.964;2023-05-24T13:00:03;100529.97;;;23.82;28.50